createdAt,value
2018-06-18T00:04:44.709Z,64.00
2018-06-18T00:07:13.915Z,64.00
2018-06-18T00:09:42.984Z,64.00
2018-06-18T00:12:12.227Z,63.60
2018-06-18T00:14:41.285Z,64.30
2018-06-18T00:17:10.418Z,63.80
2018-06-18T00:22:12.448Z,63.60
2018-06-18T00:24:41.514Z,63.40
2018-06-18T00:27:10.688Z,63.50
2018-06-18T00:29:39.755Z,63.60
2018-06-18T00:32:09.355Z,62.60
2018-06-18T00:34:38.678Z,62.40
2018-06-18T00:37:08.489Z,63.60
2018-06-18T00:39:37.732Z,65.00
2018-06-18T00:42:07.277Z,64.30
2018-06-18T00:44:36.349Z,63.00
2018-06-18T00:47:05.442Z,62.40
2018-06-18T00:49:34.488Z,62.30
2018-06-18T00:52:03.746Z,62.50
2018-06-18T00:54:32.772Z,62.10
2018-06-18T00:57:02.055Z,62.00
2018-06-18T00:59:31.082Z,62.30
2018-06-18T01:02:00.367Z,62.50
2018-06-18T01:06:58.162Z,63.40
2018-06-18T01:09:27.254Z,64.10
2018-06-18T01:11:56.304Z,64.20
2018-06-18T01:14:25.480Z,63.90
2018-06-18T01:16:54.655Z,63.80
2018-06-18T01:19:23.825Z,63.70
2018-06-18T01:21:53.100Z,63.80
2018-06-18T01:24:39.928Z,64.20
2018-06-18T01:27:09.072Z,64.20
2018-06-18T01:29:38.439Z,64.00
2018-06-18T01:32:07.473Z,63.70
2018-06-18T01:34:36.548Z,63.10
2018-06-18T01:37:05.578Z,63.00
2018-06-18T01:39:34.720Z,63.20
2018-06-18T01:42:03.952Z,63.40
2018-06-18T01:44:33.051Z,63.10
2018-06-18T01:47:02.105Z,63.10
2018-06-18T01:49:31.481Z,64.20
2018-06-18T01:52:00.550Z,64.70
2018-06-18T01:54:29.632Z,65.20
2018-06-18T01:56:58.757Z,65.10
2018-06-18T01:59:27.991Z,65.30
2018-06-18T02:01:57.351Z,65.00
2018-06-18T02:04:27.295Z,64.30
2018-06-18T02:06:56.387Z,65.00
2018-06-18T02:09:25.710Z,64.50
2018-06-18T02:11:54.793Z,64.70
2018-06-18T02:14:23.880Z,64.50
2018-06-18T02:16:52.985Z,64.10
2018-06-18T02:19:22.164Z,64.70
2018-06-18T02:21:52.392Z,64.80
2018-06-18T02:24:21.836Z,64.80
2018-06-18T02:26:56.079Z,64.60
2018-06-18T02:29:30.724Z,64.20
2018-06-18T02:32:05.306Z,64.30
2018-06-18T02:34:39.748Z,65.10
2018-06-18T02:37:14.193Z,65.40
2018-06-18T02:39:48.599Z,64.40
2018-06-18T02:42:17.766Z,64.40
2018-06-18T02:44:46.854Z,64.60
2018-06-18T02:47:15.997Z,65.60
2018-06-18T02:49:45.140Z,66.10
2018-06-18T02:52:14.359Z,66.40
2018-06-18T02:54:43.400Z,66.80
2018-06-18T02:57:14.028Z,66.60
2018-06-18T02:59:43.109Z,65.60
2018-06-18T03:02:12.210Z,65.30
2018-06-18T03:07:09.977Z,66.70
2018-06-18T03:09:39.068Z,65.60
2018-06-18T03:12:08.280Z,66.00
2018-06-18T03:14:37.512Z,65.90
2018-06-18T03:17:06.588Z,65.60
2018-06-18T03:19:41.221Z,65.70
2018-06-18T03:22:15.649Z,65.50
2018-06-18T03:24:50.185Z,65.50
2018-06-18T03:27:24.829Z,65.50
2018-06-18T03:29:53.969Z,65.90
2018-06-18T03:32:23.163Z,65.60
2018-06-18T03:34:52.252Z,65.40
2018-06-18T03:37:21.448Z,65.10
2018-06-18T03:39:50.544Z,65.00
2018-06-18T03:42:20.000Z,64.90
2018-06-18T03:45:09.611Z,64.90
2018-06-18T03:47:38.811Z,64.80
2018-06-18T03:50:07.918Z,64.80
2018-06-18T03:52:37.007Z,64.10
2018-06-18T03:56:11.834Z,63.70
2018-06-18T03:58:41.002Z,63.40
2018-06-18T04:01:26.141Z,63.70
2018-06-18T04:04:03.784Z,64.00
2018-06-18T04:06:38.570Z,63.50
2018-06-18T04:09:13.484Z,63.70
2018-06-18T04:11:47.799Z,64.10
2018-06-18T04:16:45.859Z,64.70
2018-06-18T04:19:15.025Z,65.60
2018-06-18T04:21:44.364Z,65.00
2018-06-18T04:24:13.441Z,64.60
2018-06-18T04:26:43.063Z,64.30
2018-06-18T04:29:12.246Z,64.00
2018-06-18T04:31:41.515Z,63.40
2018-06-18T04:34:20.495Z,64.70
2018-06-18T04:36:49.657Z,65.90
2018-06-18T04:39:18.817Z,66.20
2018-06-18T04:41:53.315Z,65.30
2018-06-18T04:44:28.032Z,65.50
2018-06-18T04:47:02.596Z,64.80
2018-06-18T04:49:37.468Z,65.60
2018-06-18T04:52:06.689Z,65.70
2018-06-18T04:54:36.075Z,65.80
2018-06-18T04:57:05.201Z,64.90
2018-06-18T04:59:36.001Z,64.00
2018-06-18T05:02:06.229Z,63.40
2018-06-18T05:04:35.666Z,65.20
2018-06-18T05:07:05.495Z,65.50
2018-06-18T05:09:40.828Z,65.30
2018-06-18T05:12:10.325Z,65.60
2018-06-18T05:14:39.380Z,65.00
2018-06-18T05:17:08.531Z,64.80
2018-06-18T05:19:37.626Z,65.00
2018-06-18T05:22:13.421Z,65.50
2018-06-18T05:24:42.452Z,65.30
2018-06-18T05:27:13.560Z,64.90
2018-06-18T05:29:42.781Z,65.00
2018-06-18T05:32:12.098Z,65.10
2018-06-18T05:34:41.227Z,66.70
2018-06-18T05:37:13.474Z,66.80
2018-06-18T05:39:42.839Z,65.40
2018-06-18T05:42:11.940Z,65.00
2018-06-18T05:44:41.296Z,65.00
2018-06-18T05:47:13.068Z,64.50
2018-06-18T05:49:42.147Z,64.80
2018-06-18T05:52:11.206Z,64.40
2018-06-18T05:54:40.442Z,64.10
2018-06-18T05:57:09.588Z,63.80
2018-06-18T05:59:38.678Z,64.10
2018-06-18T06:02:07.800Z,63.90
2018-06-18T06:04:37.044Z,65.10
2018-06-18T06:07:06.377Z,65.00
2018-06-18T06:09:35.481Z,63.90
2018-06-18T06:12:05.168Z,64.30
2018-06-18T06:14:34.375Z,64.00
2018-06-18T06:17:03.500Z,64.20
2018-06-18T06:19:32.640Z,64.10
2018-06-18T06:22:02.338Z,63.50
2018-06-18T06:24:31.699Z,63.40
2018-06-18T06:27:00.834Z,63.70
2018-06-18T06:29:30.281Z,63.70
2018-06-18T06:31:59.340Z,63.30
2018-06-18T06:34:28.587Z,62.10
2018-06-18T06:36:57.792Z,61.30
2018-06-18T06:39:27.127Z,60.10
2018-06-18T06:42:08.468Z,61.20
2018-06-18T06:44:37.664Z,61.30
2018-06-18T06:47:06.795Z,60.70
2018-06-18T06:49:35.998Z,60.50
2018-06-18T06:52:05.071Z,60.60
2018-06-18T06:54:34.670Z,60.10
2018-06-18T06:57:03.804Z,59.00
2018-06-18T06:59:32.864Z,59.50
2018-06-18T07:02:02.312Z,58.90
2018-06-18T07:04:31.347Z,59.50
2018-06-18T07:07:01.164Z,59.00
2018-06-18T07:09:30.377Z,59.50
2018-06-18T07:11:59.780Z,58.90
2018-06-18T07:14:29.036Z,58.40
2018-06-18T07:16:58.244Z,57.10
2018-06-18T07:19:27.404Z,56.10
2018-06-18T07:21:56.927Z,55.80
2018-06-18T07:24:25.976Z,56.20
2018-06-18T07:26:55.201Z,55.10
2018-06-18T07:29:24.295Z,55.30
2018-06-18T07:31:53.657Z,55.00
2018-06-18T07:34:22.752Z,54.80
2018-06-18T07:36:51.940Z,55.20
2018-06-18T07:39:20.983Z,55.60
2018-06-18T07:41:50.103Z,55.20
2018-06-18T07:44:19.198Z,55.90
2018-06-18T07:46:48.329Z,55.80
2018-06-18T07:49:17.390Z,56.00
2018-06-18T07:51:46.521Z,55.50
2018-06-18T07:54:15.623Z,56.20
2018-06-18T07:56:44.811Z,55.60
2018-06-18T07:59:13.851Z,54.60
2018-06-18T08:01:43.164Z,54.00
2018-06-18T08:04:12.401Z,53.50
2018-06-18T08:06:41.589Z,52.60
2018-06-18T08:09:12.481Z,52.60
2018-06-18T08:11:42.617Z,54.60
2018-06-18T08:14:12.762Z,55.60
2018-06-18T08:16:42.565Z,55.70
2018-06-18T08:19:11.741Z,56.30
2018-06-18T08:21:40.728Z,56.30
2018-06-18T08:24:09.875Z,55.60
2018-06-18T08:26:38.969Z,55.50
2018-06-18T08:29:08.565Z,53.80
2018-06-18T08:31:37.674Z,53.80
2018-06-18T08:34:06.973Z,53.90
2018-06-18T08:36:36.120Z,53.70
2018-06-18T08:39:08.098Z,54.00
2018-06-18T08:44:06.028Z,52.40
2018-06-18T08:46:35.163Z,51.90
2018-06-18T08:49:06.711Z,51.80
2018-06-18T08:51:41.370Z,51.80
2018-06-18T08:54:15.872Z,52.50
2018-06-18T08:56:50.152Z,52.70
2018-06-18T09:45:18.416Z,52.90
2018-06-18T09:47:48.051Z,51.60
2018-06-18T09:50:22.602Z,51.10
2018-06-18T09:52:56.976Z,50.80
2018-06-18T09:55:31.426Z,50.90
2018-06-18T09:58:05.964Z,51.10
2018-06-18T10:00:51.937Z,51.20
2018-06-18T10:03:21.563Z,51.80
2018-06-18T10:05:50.741Z,51.00
2018-06-18T10:08:20.308Z,50.40
2018-06-18T10:10:49.491Z,48.80
2018-06-18T10:13:18.556Z,49.80
2018-06-18T10:15:47.724Z,50.30
2018-06-18T10:18:16.790Z,50.60
2018-06-18T10:20:45.972Z,50.50
2018-06-18T10:23:15.007Z,49.90
2018-06-18T10:25:44.255Z,50.50
2018-06-18T10:28:13.328Z,49.70
2018-06-18T10:30:42.552Z,50.00
2018-06-18T10:33:17.088Z,50.00
2018-06-18T10:35:51.579Z,49.30
2018-06-18T10:38:26.068Z,50.60
2018-06-18T10:41:00.538Z,51.30
2018-06-18T10:43:31.167Z,51.50
2018-06-18T10:46:00.641Z,51.60
2018-06-18T10:48:29.680Z,51.80
2018-06-18T10:50:59.128Z,52.00
2018-06-18T10:53:28.162Z,52.30
2018-06-18T10:55:57.552Z,52.60
2018-06-18T10:58:26.641Z,51.70
2018-06-18T11:01:04.908Z,51.90
2018-06-18T11:03:33.994Z,50.40
2018-06-18T11:06:08.468Z,50.50
2018-06-18T11:08:37.561Z,50.40
2018-06-18T11:11:07.249Z,50.10
2018-06-18T11:13:36.351Z,50.60
2018-06-18T11:16:05.983Z,50.90
2018-06-18T11:18:40.316Z,50.60
2018-06-18T11:21:14.888Z,51.50
2018-06-18T11:23:49.256Z,52.10
2018-06-18T11:26:23.873Z,51.50
2018-06-18T11:28:52.920Z,51.50
2018-06-18T11:31:22.195Z,52.10
2018-06-18T11:33:51.256Z,51.10
2018-06-18T11:36:20.657Z,50.60
2018-06-18T11:38:49.708Z,50.30
2018-06-18T11:41:18.886Z,50.30
2018-06-18T11:43:47.944Z,49.90
2018-06-18T11:46:17.052Z,50.40
2018-06-18T11:48:46.126Z,50.40
2018-06-18T11:51:15.287Z,50.50
2018-06-18T11:53:45.367Z,50.90
2018-06-18T11:56:14.426Z,50.90
2018-06-18T11:58:48.825Z,51.20
2018-06-18T12:01:23.466Z,51.20
2018-06-18T12:06:32.117Z,51.40
2018-06-18T12:09:06.619Z,51.60
2018-06-18T12:11:35.771Z,51.50
2018-06-18T12:14:05.002Z,51.80
2018-06-18T12:16:35.672Z,52.20
2018-06-18T12:19:05.558Z,52.00
2018-06-18T12:21:35.035Z,51.50
2018-06-18T12:24:04.296Z,51.50
2018-06-18T12:26:33.618Z,51.90
2018-06-18T12:29:02.769Z,52.30
2018-06-18T12:31:31.915Z,52.70
2018-06-18T12:34:01.086Z,52.70
2018-06-18T12:36:30.231Z,52.60
2018-06-18T12:38:59.392Z,52.30
2018-06-18T12:41:28.580Z,52.40
2018-06-18T12:43:59.296Z,52.00
2018-06-18T12:47:32.765Z,52.20
2018-06-18T12:50:07.297Z,51.80
2018-06-18T12:52:41.883Z,52.20
2018-06-18T12:55:16.557Z,53.80
2018-06-18T12:57:45.653Z,52.90
2018-06-18T13:00:14.789Z,52.70
2018-06-18T13:02:47.881Z,52.50
2018-06-18T13:05:17.102Z,51.90
2018-06-18T13:07:46.232Z,52.70
2018-06-18T13:10:15.543Z,52.30
2018-06-18T13:12:44.623Z,52.00
2018-06-18T13:15:13.750Z,52.50
2018-06-18T13:17:42.815Z,51.80
2018-06-18T13:20:12.031Z,51.90
2018-06-18T13:22:41.081Z,51.30
2018-06-18T13:25:10.167Z,50.90
2018-06-18T13:27:44.623Z,51.30
2018-06-18T13:30:13.750Z,51.40
2018-06-18T13:32:43.307Z,51.70
2018-06-18T13:35:12.327Z,51.60
2018-06-18T13:37:46.849Z,52.10
2018-06-18T13:40:21.243Z,52.30
2018-06-18T13:42:55.810Z,52.10
2018-06-18T13:45:30.277Z,51.30
2018-06-18T13:48:05.007Z,50.70
2018-06-18T13:50:34.104Z,51.10
2018-06-18T13:53:03.286Z,50.30
2018-06-18T13:55:32.367Z,50.40
2018-06-18T13:58:01.556Z,50.40
2018-06-18T14:00:30.666Z,51.10
2018-06-18T14:02:59.777Z,51.30
2018-06-18T14:05:28.835Z,51.80
2018-06-18T14:07:57.955Z,51.30
2018-06-18T14:10:27.439Z,51.50
2018-06-18T14:12:56.527Z,51.70
2018-06-18T14:15:25.622Z,51.00
2018-06-18T14:17:54.724Z,49.50
2018-06-18T14:20:25.376Z,50.30
2018-06-18T14:22:54.700Z,50.10
2018-06-18T14:25:23.771Z,49.90
2018-06-18T14:27:52.802Z,50.10
2018-06-18T14:30:27.158Z,49.60
2018-06-18T14:33:01.702Z,49.20
2018-06-18T14:35:36.262Z,49.80
2018-06-18T14:38:10.715Z,49.70
2018-06-18T14:40:39.759Z,49.50
2018-06-18T14:43:08.861Z,50.20
2018-06-18T14:45:37.993Z,49.20
2018-06-18T14:48:07.004Z,49.40
2018-06-18T14:50:36.099Z,49.60
2018-06-18T14:53:05.344Z,49.40
2018-06-18T14:55:34.417Z,49.10
2018-06-18T14:58:03.473Z,50.20
2018-06-18T15:00:33.937Z,50.30
2018-06-18T15:03:03.062Z,50.80
2018-06-18T15:08:05.116Z,52.20
2018-06-18T15:10:39.531Z,51.50
2018-06-18T15:13:10.713Z,51.30
2018-06-18T15:15:45.353Z,51.20
2018-06-18T15:18:14.443Z,51.80
2018-06-18T15:20:43.518Z,52.70
2018-06-18T15:23:12.601Z,51.80
2018-06-18T15:25:44.621Z,51.40
2018-06-18T15:28:14.655Z,51.90
2018-06-18T15:30:43.732Z,51.40
2018-06-18T15:33:12.851Z,49.30
2018-06-18T15:35:42.008Z,49.50
2018-06-18T15:38:11.186Z,49.10
2018-06-18T15:40:40.232Z,49.30
2018-06-18T15:43:09.292Z,49.60
2018-06-18T15:45:38.347Z,50.30
2018-06-18T15:48:07.489Z,51.30
2018-06-18T15:50:36.553Z,52.10
2018-06-18T15:53:05.763Z,52.30
2018-06-18T15:55:34.818Z,52.20
2018-06-18T15:58:03.844Z,52.70
2018-06-18T16:00:32.915Z,52.20
2018-06-18T16:03:02.328Z,52.00
2018-06-18T16:05:31.524Z,52.30
2018-06-18T16:08:00.793Z,52.60
2018-06-18T16:10:30.175Z,52.90
2018-06-18T16:12:59.301Z,53.10
2018-06-18T16:15:28.474Z,53.00
2018-06-18T16:17:57.557Z,53.40
2018-06-18T16:20:26.732Z,53.60
2018-06-18T16:22:55.938Z,53.60
2018-06-18T16:25:25.067Z,53.50
2018-06-18T16:27:57.165Z,53.00
2018-06-18T16:32:55.144Z,53.20
2018-06-18T16:35:24.596Z,53.00
2018-06-18T16:37:53.676Z,53.60
2018-06-18T16:40:22.984Z,54.10
2018-06-18T16:42:52.168Z,54.10
2018-06-18T16:45:23.096Z,54.10
2018-06-18T16:47:52.242Z,54.50
2018-06-18T16:50:21.418Z,55.10
2018-06-18T16:52:50.507Z,55.10
2018-06-18T16:55:19.571Z,54.70
2018-06-18T16:57:48.696Z,55.00
2018-06-18T17:00:17.854Z,55.80
2018-06-18T17:02:47.171Z,55.30
2018-06-18T17:05:16.205Z,55.40
2018-06-18T17:07:45.402Z,55.20
2018-06-18T17:10:14.614Z,54.80
2018-06-18T17:12:43.760Z,54.60
2018-06-18T17:15:12.874Z,54.70
2018-06-18T17:20:10.660Z,55.10
2018-06-18T17:22:39.841Z,55.80
2018-06-18T17:25:08.997Z,55.70
2018-06-18T17:27:38.744Z,55.60
2018-06-18T17:30:08.084Z,56.30
2018-06-18T17:32:37.213Z,55.80
2018-06-18T17:35:06.344Z,55.90
2018-06-18T17:37:35.464Z,57.00
2018-06-18T17:40:05.152Z,56.20
2018-06-18T17:42:34.221Z,56.20
2018-06-18T17:45:03.389Z,56.00
2018-06-18T17:47:32.537Z,56.00
2018-06-18T17:50:01.661Z,55.60
2018-06-18T17:52:30.889Z,55.60
2018-06-18T17:55:00.038Z,55.30
2018-06-18T17:57:29.187Z,55.30
2018-06-18T17:59:58.316Z,55.90
2018-06-18T18:02:27.415Z,56.40
2018-06-18T18:04:57.311Z,56.80
2018-06-18T18:07:27.619Z,56.80
2018-06-18T18:09:57.649Z,56.70
2018-06-18T18:12:26.971Z,57.10
2018-06-18T18:14:56.058Z,57.00
2018-06-18T18:17:25.139Z,57.10
2018-06-18T18:19:54.278Z,57.30
2018-06-18T18:22:23.381Z,57.50
2018-06-18T18:27:26.831Z,57.70
2018-06-18T18:29:55.981Z,57.80
2018-06-18T18:32:25.122Z,58.00
2018-06-18T18:34:54.193Z,58.30
2018-06-18T18:37:23.277Z,58.20
2018-06-18T18:39:52.476Z,58.40
2018-06-18T18:42:22.642Z,58.20
2018-06-18T18:44:51.753Z,58.10
2018-06-18T18:47:21.029Z,58.40
2018-06-18T18:49:50.068Z,58.60
2018-06-18T18:52:19.221Z,59.00
2018-06-18T18:56:04.299Z,59.90
2018-06-18T18:58:57.550Z,59.20
2018-06-18T19:01:27.371Z,60.20
2018-06-18T19:06:27.226Z,59.10
2018-06-18T19:08:56.315Z,60.10
2018-06-18T19:11:25.518Z,60.40
2018-06-18T19:13:54.523Z,60.20
2018-06-18T19:16:23.674Z,60.20
2018-06-18T19:18:58.067Z,60.30
2018-06-18T19:21:27.187Z,60.40
2018-06-18T19:23:56.259Z,60.70
2018-06-18T19:26:25.407Z,61.00
2018-06-18T19:28:54.481Z,61.10
2018-06-18T19:31:24.921Z,61.10
2018-06-18T19:34:29.401Z,61.00
2018-06-18T19:36:58.533Z,61.40
2018-06-18T19:39:29.575Z,61.70
2018-06-18T19:41:58.683Z,61.70
2018-06-18T19:44:27.784Z,62.10
2018-06-18T19:47:35.654Z,62.20
2018-06-18T19:50:04.723Z,62.40
2018-06-18T19:52:33.780Z,62.60
2018-06-18T19:55:08.697Z,62.90
2018-06-18T19:57:37.817Z,63.00
2018-06-18T20:00:06.890Z,63.00
2018-06-18T20:02:36.288Z,63.20
2018-06-18T20:05:13.660Z,63.30
2018-06-18T20:08:01.497Z,63.20
2018-06-18T20:10:30.604Z,63.40
2018-06-18T20:12:59.708Z,63.30
2018-06-18T20:15:28.795Z,63.30
2018-06-18T20:17:57.836Z,63.60
2018-06-18T20:20:26.915Z,63.60
2018-06-18T20:22:56.107Z,63.50
2018-06-18T20:25:31.981Z,63.60
2018-06-18T20:28:01.391Z,63.70
2018-06-18T20:30:30.509Z,63.90
2018-06-18T20:32:59.772Z,63.90
2018-06-18T20:35:31.755Z,63.90
2018-06-18T20:38:01.212Z,64.00
2018-06-18T20:40:30.390Z,64.10
2018-06-18T20:42:59.556Z,64.00
2018-06-18T20:45:29.021Z,64.10
2018-06-18T20:47:58.093Z,63.90
2018-06-18T20:50:27.197Z,64.00
2018-06-18T20:52:56.430Z,64.20
2018-06-18T20:55:25.583Z,64.30
2018-06-18T20:57:54.813Z,64.50
2018-06-18T21:00:23.946Z,64.80
2018-06-18T21:02:55.010Z,64.70
2018-06-18T21:05:24.243Z,64.90
2018-06-18T21:07:53.447Z,64.80
2018-06-18T21:10:22.645Z,65.00
2018-06-18T21:12:51.866Z,65.30
2018-06-18T21:17:50.815Z,65.30
2018-06-18T21:20:30.195Z,65.30
2018-06-18T21:22:59.288Z,65.40
2018-06-18T21:25:28.344Z,65.50
2018-06-18T21:27:58.147Z,65.80
2018-06-18T21:30:28.034Z,65.90
2018-06-18T21:32:57.234Z,66.00
2018-06-18T21:35:26.306Z,65.70
2018-06-18T21:37:55.461Z,66.00
2018-06-18T21:40:24.710Z,66.20
2018-06-18T21:42:53.783Z,67.10
2018-06-18T21:45:24.512Z,66.00
2018-06-18T21:47:54.773Z,66.10
2018-06-18T21:50:23.934Z,66.40
2018-06-18T21:52:53.372Z,66.00
2018-06-18T21:55:22.580Z,66.50
2018-06-18T21:57:51.968Z,66.50
2018-06-18T22:00:30.460Z,66.10
2018-06-18T22:02:59.552Z,66.20
2018-06-18T22:05:28.766Z,66.60
2018-06-18T22:07:57.884Z,66.60
2018-06-18T22:10:27.037Z,67.00
2018-06-18T22:12:56.159Z,68.10
2018-06-18T22:15:25.343Z,68.50
2018-06-18T22:17:54.448Z,68.70
2018-06-18T22:20:23.864Z,69.00
2018-06-18T22:22:52.908Z,69.90
2018-06-18T22:25:22.169Z,69.40
2018-06-18T22:27:51.261Z,69.50
2018-06-18T22:30:20.547Z,69.50
2018-06-18T22:32:49.816Z,69.50
2018-06-18T22:35:18.945Z,69.80
2018-06-18T22:37:48.021Z,69.90
2018-06-18T22:40:17.145Z,69.80
2018-06-18T22:42:46.265Z,69.70
2018-06-18T22:45:16.359Z,69.80
2018-06-18T22:47:45.457Z,69.90
2018-06-18T22:50:14.598Z,71.50
2018-06-18T22:52:44.203Z,70.50
2018-06-18T22:55:14.246Z,70.60
2018-06-18T22:57:50.415Z,71.10
2018-06-18T23:00:19.563Z,71.10
2018-06-18T23:02:48.613Z,71.40
2018-06-18T23:07:47.704Z,71.10
2018-06-18T23:10:17.646Z,71.00
2018-06-18T23:12:46.772Z,71.10
2018-06-18T23:15:15.965Z,71.70
2018-06-18T23:17:45.043Z,71.80
2018-06-18T23:20:14.192Z,72.00
2018-06-18T23:22:43.364Z,72.40
2018-06-18T23:25:12.451Z,72.70
2018-06-18T23:27:41.539Z,72.80
2018-06-18T23:30:11.420Z,72.90
2018-06-18T23:32:40.468Z,73.00
2018-06-18T23:35:09.579Z,73.40
2018-06-18T23:37:38.608Z,74.00
2018-06-18T23:40:07.711Z,73.00
2018-06-18T23:42:36.760Z,73.20
2018-06-18T23:45:06.301Z,73.10
